createdAt,value
2017-09-11T00:01:25.733Z,22.50
2017-09-11T00:06:34.567Z,22.40
2017-09-11T00:11:29.889Z,22.70
2017-09-11T00:13:57.652Z,22.70
2017-09-11T00:16:25.311Z,22.60
2017-09-11T00:21:20.736Z,22.50
2017-09-11T00:23:48.396Z,22.50
2017-09-11T00:26:16.875Z,22.50
2017-09-11T00:28:44.723Z,22.50
2017-09-11T00:31:12.299Z,22.50
2017-09-11T00:33:39.959Z,22.40
2017-09-11T00:38:37.123Z,22.50
2017-09-11T00:41:04.744Z,22.40
2017-09-11T00:43:32.446Z,22.40
2017-09-11T00:46:00.107Z,22.40
2017-09-11T00:48:27.766Z,22.40
2017-09-11T00:53:23.193Z,22.30
2017-09-11T00:55:50.849Z,22.40
2017-09-11T00:58:18.619Z,22.30
2017-09-11T01:00:46.238Z,22.30
2017-09-11T01:03:13.931Z,22.30
2017-09-11T01:05:41.695Z,22.30
2017-09-11T01:08:09.357Z,22.30
2017-09-11T01:10:37.016Z,22.30
2017-09-11T01:15:32.440Z,22.30
2017-09-11T01:20:40.049Z,22.30
2017-09-11T01:25:35.369Z,22.50
2017-09-11T01:28:03.133Z,22.50
2017-09-11T01:30:30.794Z,22.50
2017-09-11T01:35:27.035Z,22.40
2017-09-11T01:37:54.696Z,22.30
2017-09-11T01:42:50.016Z,22.30
2017-09-11T01:45:17.676Z,22.30
2017-09-11T01:50:13.309Z,22.20
2017-09-11T01:52:40.967Z,22.30
2017-09-11T01:57:36.389Z,22.30
2017-09-11T02:00:04.050Z,22.20
2017-09-11T02:02:31.712Z,22.30
2017-09-11T02:07:28.140Z,22.20
2017-09-11T02:09:55.715Z,22.20
2017-09-11T02:12:23.479Z,22.20
2017-09-11T02:14:51.225Z,22.20
2017-09-11T02:19:46.462Z,22.20
2017-09-11T02:22:14.217Z,22.20
2017-09-11T02:27:09.630Z,22.10
2017-09-11T02:29:37.206Z,22.20
2017-09-11T02:32:04.866Z,22.10
2017-09-11T02:37:00.294Z,22.10
2017-09-11T02:39:27.949Z,22.10
2017-09-11T02:41:55.711Z,22.10
2017-09-11T02:44:23.336Z,22.10
2017-09-11T02:49:30.161Z,22.10
2017-09-11T02:51:57.822Z,22.10
2017-09-11T02:54:25.442Z,22.30
2017-09-11T02:56:53.144Z,22.30
2017-09-11T02:59:20.890Z,22.20
2017-09-11T03:01:48.465Z,22.20
2017-09-11T03:06:43.889Z,22.10
2017-09-11T03:09:11.553Z,22.10
2017-09-11T03:11:39.309Z,22.10
2017-09-11T03:14:06.936Z,22.10
2017-09-11T03:16:34.635Z,22.10
2017-09-11T03:19:02.324Z,22.10
2017-09-11T03:21:29.953Z,22.10
2017-09-11T03:26:26.179Z,22.10
2017-09-11T03:31:21.414Z,22.00
2017-09-11T03:33:49.176Z,22.00
2017-09-11T03:36:16.841Z,22.00
2017-09-11T03:41:12.261Z,22.00
2017-09-11T03:43:40.014Z,22.00
2017-09-11T03:46:07.582Z,22.00
2017-09-11T03:51:14.355Z,22.00
2017-09-11T03:53:42.118Z,22.00
2017-09-11T03:56:09.694Z,22.20
2017-09-11T04:01:05.100Z,22.10
2017-09-11T04:03:32.674Z,22.00
2017-09-11T04:08:28.000Z,22.00
2017-09-11T04:10:55.742Z,22.00
2017-09-11T04:15:51.079Z,22.00
2017-09-11T04:18:18.741Z,22.00
2017-09-11T04:20:46.366Z,22.00
2017-09-11T04:23:14.148Z,21.90
2017-09-11T04:25:41.814Z,21.90
2017-09-11T04:28:09.343Z,21.90
2017-09-11T04:30:37.044Z,21.90
2017-09-11T04:33:04.789Z,21.90
2017-09-11T04:35:32.451Z,21.90
2017-09-11T04:40:28.606Z,21.90
2017-09-11T04:42:56.266Z,21.90
2017-09-11T04:47:51.695Z,21.90
2017-09-11T04:50:19.437Z,21.90
2017-09-11T04:52:47.026Z,22.00
2017-09-11T04:55:15.593Z,22.00
2017-09-11T04:57:43.254Z,22.00
2017-09-11T05:00:11.019Z,22.00
2017-09-11T05:02:38.764Z,22.00
2017-09-11T05:07:34.003Z,22.00
2017-09-11T05:15:08.636Z,22.00
2017-09-11T05:17:36.214Z,22.20
2017-09-11T05:22:31.634Z,22.10
2017-09-11T05:24:59.297Z,22.10
2017-09-11T05:27:27.059Z,22.10
2017-09-11T05:29:54.678Z,22.10
2017-09-11T05:32:23.023Z,22.00
2017-09-11T05:34:50.756Z,22.00
2017-09-11T05:37:18.416Z,22.10
2017-09-11T05:39:46.077Z,22.10
2017-09-11T05:44:41.501Z,22.00
2017-09-11T05:47:09.162Z,22.10
2017-09-11T05:49:37.743Z,22.10
2017-09-11T05:54:33.781Z,22.10
2017-09-11T05:57:02.363Z,22.10
2017-09-11T05:59:30.843Z,22.10
2017-09-11T06:01:58.468Z,22.10
2017-09-11T06:04:26.164Z,22.10
2017-09-11T06:09:22.390Z,22.10
2017-09-11T06:14:18.734Z,22.20
2017-09-11T06:16:46.310Z,22.20
2017-09-11T06:19:14.073Z,22.20
2017-09-11T06:21:41.737Z,22.30
2017-09-11T06:26:37.242Z,22.30
2017-09-11T06:29:04.818Z,22.30
2017-09-11T06:31:32.475Z,22.40
2017-09-11T06:39:07.217Z,22.40
2017-09-11T06:44:02.458Z,22.70
2017-09-11T06:46:30.305Z,22.70
2017-09-11T06:48:57.880Z,22.70
2017-09-11T06:53:53.299Z,22.70
2017-09-11T06:56:20.965Z,22.70
2017-09-11T06:58:48.624Z,22.70
2017-09-11T07:03:44.129Z,22.80
2017-09-11T07:06:11.791Z,22.80
2017-09-11T07:08:39.468Z,22.80
2017-09-11T07:11:07.131Z,22.90
2017-09-11T07:16:16.786Z,23.00
2017-09-11T07:21:12.191Z,23.40
2017-09-11T07:23:39.959Z,23.40
2017-09-11T07:26:07.535Z,23.40
2017-09-11T07:31:02.956Z,23.60
2017-09-11T07:33:30.616Z,23.60
2017-09-11T07:35:59.303Z,23.70
2017-09-11T07:38:27.063Z,23.80
2017-09-11T07:40:54.726Z,23.90
2017-09-11T07:45:50.148Z,24.10
2017-09-11T07:48:17.810Z,24.10
2017-09-11T07:50:45.475Z,24.20
2017-09-11T07:55:40.975Z,24.30
2017-09-11T07:58:08.558Z,24.30
2017-09-11T08:00:37.195Z,24.40
2017-09-11T08:03:04.826Z,24.40
2017-09-11T08:05:32.556Z,24.40
2017-09-11T08:08:00.524Z,24.50
2017-09-11T08:10:28.186Z,24.60
2017-09-11T08:15:23.608Z,24.70
2017-09-11T08:17:51.268Z,24.70
2017-09-11T08:20:18.928Z,24.70
2017-09-11T08:25:15.478Z,24.80
2017-09-11T08:27:43.180Z,24.80
2017-09-11T08:30:10.901Z,24.90
2017-09-11T08:35:06.223Z,25.00
2017-09-11T08:40:13.119Z,25.10
2017-09-11T08:42:40.961Z,25.10
2017-09-11T08:45:08.544Z,25.30
2017-09-11T08:50:05.480Z,25.50
2017-09-11T08:52:33.980Z,25.50
2017-09-11T08:57:29.402Z,25.60
2017-09-11T08:59:57.066Z,25.60
2017-09-11T09:02:24.724Z,25.70
2017-09-11T09:07:20.259Z,25.80
2017-09-11T09:12:15.672Z,25.90
2017-09-11T09:14:43.334Z,26.00
2017-09-11T09:17:11.077Z,26.10
2017-09-11T09:22:07.236Z,26.10
2017-09-11T09:24:34.896Z,26.30
2017-09-11T09:29:30.318Z,26.40
2017-09-11T09:31:57.981Z,26.40
2017-09-11T09:34:26.461Z,26.50
2017-09-11T09:36:54.122Z,26.40
2017-09-11T09:39:21.865Z,26.50
2017-09-11T09:44:17.288Z,26.50
2017-09-11T09:46:44.948Z,26.50
2017-09-11T09:49:12.628Z,26.60
2017-09-11T09:51:40.372Z,26.60
2017-09-11T09:56:35.794Z,26.70
2017-09-11T09:59:03.372Z,26.70
2017-09-11T10:01:31.033Z,26.80
2017-09-11T10:09:05.596Z,27.00
2017-09-11T10:11:33.331Z,27.00
2017-09-11T10:14:00.883Z,27.10
2017-09-11T10:16:28.670Z,27.10
2017-09-11T10:21:23.994Z,27.20
2017-09-11T10:23:51.751Z,27.10
2017-09-11T10:26:19.498Z,27.10
2017-09-11T10:31:15.756Z,27.00
2017-09-11T10:33:43.419Z,27.00
2017-09-11T10:36:11.082Z,27.00
2017-09-11T10:41:06.502Z,26.80
2017-09-11T10:43:34.164Z,26.80
2017-09-11T10:46:02.009Z,26.80
2017-09-11T10:48:29.585Z,26.70
2017-09-11T10:53:25.095Z,26.70
2017-09-11T10:55:52.660Z,26.70
2017-09-11T10:58:20.276Z,26.70
2017-09-11T11:00:48.018Z,26.80
2017-09-11T11:03:15.649Z,26.80
2017-09-11T11:05:43.314Z,26.80
2017-09-11T11:10:39.464Z,26.90
2017-09-11T11:13:07.112Z,26.80
2017-09-11T11:15:34.878Z,26.90
2017-09-11T11:18:02.534Z,26.90
2017-09-11T11:20:30.299Z,26.90
2017-09-11T11:22:57.958Z,26.80
2017-09-11T11:27:53.381Z,26.80
2017-09-11T11:30:21.126Z,26.70
2017-09-11T11:35:29.970Z,26.70
2017-09-11T11:37:57.726Z,26.70
2017-09-11T11:40:25.299Z,26.90
2017-09-11T11:42:52.962Z,26.90
2017-09-11T11:47:48.387Z,26.80
2017-09-11T11:50:16.050Z,26.80
2017-09-11T11:52:43.997Z,26.80
2017-09-11T11:55:11.880Z,26.80
2017-09-11T11:57:39.539Z,26.80
2017-09-11T12:02:34.939Z,26.80
2017-09-11T12:05:02.569Z,26.80
2017-09-11T12:07:30.390Z,26.80
2017-09-11T12:09:58.050Z,26.80
2017-09-11T12:14:53.472Z,26.70
2017-09-11T12:17:21.132Z,26.70
2017-09-11T12:19:48.762Z,26.70
2017-09-11T12:22:16.554Z,26.70
2017-09-11T12:27:11.875Z,26.70
2017-09-11T12:29:39.729Z,26.70
2017-09-11T12:32:07.629Z,26.70
2017-09-11T12:34:35.268Z,26.70
2017-09-11T12:37:03.028Z,26.70
2017-09-11T12:39:30.690Z,26.70
2017-09-11T12:41:58.351Z,26.70
2017-09-11T12:46:53.773Z,26.70
2017-09-11T12:49:21.435Z,26.70
2017-09-11T12:51:49.197Z,26.70
2017-09-11T12:56:56.295Z,26.50
2017-09-11T13:01:51.700Z,26.60
2017-09-11T13:04:19.379Z,26.60
2017-09-11T13:06:47.040Z,26.50
2017-09-11T13:11:42.463Z,26.40
2017-09-11T13:14:10.122Z,26.40
2017-09-11T13:16:37.788Z,26.40
2017-09-11T13:21:34.026Z,26.30
2017-09-11T13:24:01.771Z,26.30
2017-09-11T13:28:57.193Z,26.30
2017-09-11T13:31:25.589Z,26.20
2017-09-11T13:36:21.218Z,26.20
2017-09-11T13:38:48.878Z,26.20
2017-09-11T13:43:45.122Z,26.20
2017-09-11T13:46:12.784Z,26.20
2017-09-11T13:51:08.494Z,26.10
2017-09-11T13:53:36.068Z,26.10
2017-09-11T13:58:31.493Z,26.00
2017-09-11T14:01:00.076Z,26.00
2017-09-11T14:03:29.065Z,25.90
2017-09-11T14:05:56.731Z,25.90
2017-09-11T14:10:52.968Z,25.80
2017-09-11T14:15:59.862Z,25.80
2017-09-11T14:18:27.607Z,25.70
2017-09-11T14:23:22.928Z,25.80
2017-09-11T14:25:50.607Z,25.90
2017-09-11T14:28:18.270Z,25.80
2017-09-11T14:33:13.691Z,25.70
2017-09-11T14:35:41.351Z,25.60
2017-09-11T14:38:09.112Z,25.60
2017-09-11T14:40:36.773Z,25.60
2017-09-11T14:45:32.198Z,25.60
2017-09-11T14:47:59.858Z,25.60
2017-09-11T14:50:27.518Z,25.60
2017-09-11T14:55:23.761Z,25.60
2017-09-11T14:57:52.342Z,25.60
2017-09-11T15:02:47.766Z,25.50
2017-09-11T15:05:15.426Z,25.50
2017-09-11T15:07:44.010Z,25.50
2017-09-11T15:12:39.332Z,25.50
2017-09-11T15:15:07.093Z,25.40
2017-09-11T15:17:34.756Z,25.40
2017-09-11T15:22:30.174Z,25.30
2017-09-11T15:24:57.921Z,25.30
2017-09-11T15:27:25.506Z,25.20
2017-09-11T15:32:20.905Z,25.20
2017-09-11T15:37:27.793Z,25.10
2017-09-11T15:39:55.454Z,25.10
2017-09-11T15:44:51.612Z,25.20
2017-09-11T15:47:19.599Z,25.20
2017-09-11T15:52:14.948Z,25.00
2017-09-11T15:54:43.482Z,24.90
2017-09-11T15:59:38.907Z,24.70
2017-09-11T16:02:06.574Z,24.70
2017-09-11T16:04:34.313Z,24.60
2017-09-11T16:09:29.652Z,24.60
2017-09-11T16:11:57.311Z,24.50
2017-09-11T16:14:25.074Z,24.40
2017-09-11T16:16:52.840Z,24.30
2017-09-11T16:19:20.497Z,24.30
2017-09-11T16:24:15.922Z,24.20
2017-09-11T16:26:43.581Z,24.20
2017-09-11T16:29:11.347Z,24.20
2017-09-11T16:31:39.851Z,24.20
2017-09-11T16:34:07.488Z,24.20
2017-09-11T16:36:35.181Z,24.20
2017-09-11T16:39:02.909Z,24.20
2017-09-11T16:43:58.332Z,24.20
2017-09-11T16:46:25.993Z,24.20
2017-09-11T16:48:53.656Z,24.20
2017-09-11T16:53:49.222Z,24.20
2017-09-11T17:01:24.562Z,24.00
2017-09-11T17:03:52.311Z,24.00
2017-09-11T17:06:20.894Z,24.20
2017-09-11T17:11:16.636Z,24.10
2017-09-11T17:13:44.371Z,24.10
2017-09-11T17:16:12.033Z,24.00
2017-09-11T17:21:07.382Z,24.00
2017-09-11T17:23:35.004Z,23.90
2017-09-11T17:26:02.796Z,23.90
2017-09-11T17:28:30.457Z,23.90
2017-09-11T17:33:25.890Z,23.90
2017-09-11T17:35:53.538Z,23.90
2017-09-11T17:38:22.303Z,23.90
2017-09-11T17:40:49.991Z,23.90
2017-09-11T17:43:17.735Z,23.80
2017-09-11T17:48:13.052Z,23.80
2017-09-11T17:50:40.631Z,23.70
2017-09-11T17:55:36.052Z,23.70
2017-09-11T17:58:03.710Z,23.70
2017-09-11T18:00:31.704Z,23.70
2017-09-11T18:05:27.523Z,23.70
2017-09-11T18:10:35.000Z,23.60
2017-09-11T18:13:03.589Z,23.60
2017-09-11T18:15:31.764Z,23.80
2017-09-11T18:17:59.435Z,23.80
2017-09-11T18:20:27.179Z,23.70
2017-09-11T18:22:54.753Z,23.70
2017-09-11T18:27:51.251Z,23.60
2017-09-11T18:33:00.328Z,23.60
2017-09-11T18:35:28.661Z,23.60
2017-09-11T18:40:37.645Z,23.70
2017-09-11T18:43:05.223Z,23.60
2017-09-11T18:45:32.864Z,23.70
2017-09-11T18:48:00.649Z,23.70
2017-09-11T18:52:56.056Z,23.60
2017-09-11T18:55:23.729Z,23.60
2017-09-11T18:57:51.370Z,23.50
2017-09-11T19:00:19.050Z,23.50
2017-09-11T19:02:46.814Z,23.40
2017-09-11T19:05:15.070Z,23.40
2017-09-11T19:07:42.663Z,23.40
2017-09-11T19:10:10.495Z,23.40
2017-09-11T19:12:38.068Z,23.40
2017-09-11T19:15:06.181Z,23.40
2017-09-11T19:17:33.930Z,23.40
2017-09-11T19:20:01.537Z,23.30
2017-09-11T19:22:29.306Z,23.30
2017-09-11T19:24:57.069Z,23.30
2017-09-11T19:27:24.648Z,23.30
2017-09-11T19:29:52.308Z,23.30
2017-09-11T19:34:47.735Z,23.30
2017-09-11T19:37:15.392Z,23.20
2017-09-11T19:39:43.141Z,23.20
2017-09-11T19:42:11.428Z,23.20
2017-09-11T19:44:39.175Z,23.20
2017-09-11T19:49:45.979Z,23.20
2017-09-11T19:52:13.745Z,23.20
2017-09-11T19:54:41.488Z,23.30
2017-09-11T19:57:09.066Z,23.30
2017-09-11T20:02:04.489Z,23.30
2017-09-11T20:04:32.233Z,23.20
2017-09-11T20:07:00.000Z,23.20
2017-09-11T20:09:27.574Z,23.20
2017-09-11T20:14:22.997Z,23.10
2017-09-11T20:16:50.739Z,23.20
2017-09-11T20:24:21.933Z,26.10
2017-09-11T20:26:49.632Z,25.20
2017-09-11T20:31:45.016Z,24.60
2017-09-11T20:34:12.761Z,24.40
2017-09-11T20:40:18.942Z,24.30
2017-09-11T20:42:46.524Z,24.00
2017-09-11T20:47:41.944Z,23.20
2017-09-11T20:50:09.604Z,22.90
2017-09-11T20:52:37.269Z,22.80
2017-09-11T20:57:32.774Z,22.50
2017-09-11T21:00:00.434Z,22.50
2017-09-11T21:02:28.196Z,22.40
2017-09-11T21:04:55.773Z,22.40
2017-09-11T21:15:06.772Z,22.30
2017-09-11T21:17:35.148Z,22.20
2017-09-11T21:20:03.391Z,22.20
2017-09-11T21:22:31.920Z,22.20
2017-09-11T21:25:00.407Z,22.20
2017-09-11T21:27:28.892Z,22.20
2017-09-11T21:29:56.624Z,22.20
2017-09-11T21:32:24.287Z,22.20
2017-09-11T21:37:20.651Z,22.20
2017-09-11T21:44:55.284Z,22.20
2017-09-11T21:47:23.047Z,22.30
2017-09-11T21:49:50.625Z,22.30
2017-09-11T21:52:18.370Z,22.30
2017-09-11T21:57:13.712Z,22.30
2017-09-11T21:59:41.369Z,22.20
2017-09-11T22:02:09.132Z,22.20
2017-09-11T22:04:36.794Z,22.20
2017-09-11T22:09:32.220Z,22.20
2017-09-11T22:11:59.961Z,22.20
2017-09-11T22:14:27.506Z,22.20
2017-09-11T22:16:55.195Z,22.20
2017-09-11T22:19:22.860Z,22.20
2017-09-11T22:21:50.491Z,22.20
2017-09-11T22:24:18.280Z,22.20
2017-09-11T22:29:13.600Z,22.20
2017-09-11T22:31:41.365Z,22.10
2017-09-11T22:34:09.030Z,22.10
2017-09-11T22:39:04.449Z,22.10
2017-09-11T22:41:32.107Z,22.10
2017-09-11T22:43:59.769Z,22.10
2017-09-11T22:48:55.192Z,22.10
2017-09-11T22:51:22.935Z,22.10
2017-09-11T22:53:50.619Z,22.10
2017-09-11T22:56:18.276Z,22.10
2017-09-11T23:01:13.698Z,22.10
2017-09-11T23:03:41.853Z,22.10
2017-09-11T23:06:09.513Z,22.10
2017-09-11T23:08:37.277Z,22.00
2017-09-11T23:13:44.170Z,22.00
2017-09-11T23:16:11.744Z,22.10
2017-09-11T23:21:07.252Z,22.10
2017-09-11T23:23:34.829Z,22.20
2017-09-11T23:26:02.574Z,22.10
2017-09-11T23:30:58.116Z,22.10
2017-09-11T23:33:25.775Z,22.00
2017-09-11T23:38:21.201Z,22.00
2017-09-11T23:40:48.945Z,22.00
2017-09-11T23:43:16.624Z,22.10
2017-09-11T23:45:44.283Z,22.00
2017-09-11T23:50:39.709Z,22.00
2017-09-11T23:53:07.370Z,22.00
2017-09-11T23:55:35.029Z,22.00
